Atlanta, Louisiana
Current Conditions -  °F | °C
As of 5:15 PM on Wednesday 17 Dec 2014 (Local Time) from KIER Reporting Station
Overcast Overcast  
Wind Chill: 11°   Ceiling: 11000
Heat Index: 11°   Visibility: 10mi
Dew Point:   Wind: 7mph
Humidity: 70%   Direction: 90°E
Pressure: 30.16"   Gusts: NA
Location:  31.81°N, 92.74°W
Report Text: KIER 172315Z AUTO 09006KT 10SM OVC110 11/06 A3016 RMK AO2 T01100057
Loading
Personal Weather Stations






























Interactive Weather Map New forecast layout! Learn more

10-Day Weather Forecast

Advertisements
Track Severe Weather on mobile